Time;durP1;ratioP1;P1;durP2;ratioP2;P2;SDS_P1;SDS_P2;PMS_P1;PMS_P2;Temp;Humidity;BMP_temperature;BMP_pressure;BME280_temperature;BME280_humidity;BME280_pressure;Samples;Min_cycle;Max_cycle;Signal;HPM_P1;HPM_P2
2022/10/09 00:00:23;;;;;;;6.80;2.83;;;;;;;12.79;100.00;97216.03;5081121;28;20305;-61
2022/10/09 00:02:50;;;;;;;4.00;2.70;;;;;;;12.80;100.00;97212.41;5081377;28;20285;-59
2022/10/09 00:05:19;;;;;;;4.97;2.67;;;;;;;12.72;100.00;97216.72;5081381;28;20310;-60
2022/10/09 00:07:46;;;;;;;4.20;2.53;;;;;;;12.70;100.00;97219.53;5081588;28;20601;-60
2022/10/09 00:10:12;;;;;;;4.40;2.40;;;;;;;12.69;100.00;97225.81;5081369;28;20285;-61
2022/10/09 00:12:39;;;;;;;4.23;2.70;;;;;;;12.62;100.00;97215.91;5081919;28;20206;-58
2022/10/09 00:15:06;;;;;;;4.60;3.03;;;;;;;12.60;100.00;97224.03;5080535;28;20234;-60
2022/10/09 00:17:33;;;;;;;5.63;3.10;;;;;;;12.58;100.00;97218.00;5080324;28;20242;-60
2022/10/09 00:20:00;;;;;;;5.50;2.67;;;;;;;12.53;100.00;97212.31;5080782;28;20292;-62
2022/10/09 00:22:28;;;;;;;4.07;2.60;;;;;;;12.47;100.00;97212.84;5080683;28;20285;-60
2022/10/09 00:24:54;;;;;;;5.40;2.63;;;;;;;12.42;100.00;97213.28;5080508;28;20241;-58
2022/10/09 00:27:22;;;;;;;4.97;2.70;;;;;;;12.42;100.00;97208.00;5080984;28;20211;-60
2022/10/09 00:29:48;;;;;;;5.43;2.70;;;;;;;12.41;100.00;97201.00;5080505;28;20289;-59
2022/10/09 00:32:15;;;;;;;5.27;2.90;;;;;;;12.34;100.00;97207.84;5080960;28;20293;-58
2022/10/09 00:34:42;;;;;;;2.50;2.20;;;;;;;12.30;100.00;97192.34;5080387;28;20289;-60
2022/10/09 00:37:09;;;;;;;4.00;2.47;;;;;;;12.28;100.00;97208.41;5083076;28;20325;-60
2022/10/09 00:39:37;;;;;;;3.60;2.30;;;;;;;12.23;100.00;97200.03;5084963;28;20293;-60
2022/10/09 00:42:04;;;;;;;4.17;2.53;;;;;;;12.23;100.00;97191.22;5085176;28;20305;-60
2022/10/09 00:44:53;;;;;;;3.70;2.20;;;;;;;12.17;100.00;97190.00;5084801;28;20201;-61
2022/10/09 00:47:23;;;;;;;6.00;2.70;;;;;;;12.19;100.00;97187.19;5068518;28;20246;-61
2022/10/09 00:49:50;;;;;;;3.53;2.40;;;;;;;12.18;100.00;97188.19;5084549;28;20654;-61
2022/10/09 00:52:17;;;;;;;3.20;2.60;;;;;;;12.18;100.00;97191.66;5085075;28;20221;-58
2022/10/09 00:54:45;;;;;;;3.83;2.70;;;;;;;12.16;100.00;97184.81;5086569;28;20293;-59
2022/10/09 00:57:12;;;;;;;5.83;2.37;;;;;;;12.18;100.00;97188.19;5085126;28;20292;-60
2022/10/09 00:59:40;;;;;;;4.20;2.63;;;;;;;12.18;100.00;97188.19;5084797;28;20293;-61
2022/10/09 01:02:07;;;;;;;7.00;2.87;;;;;;;12.19;100.00;97176.56;5084671;28;20199;-60
2022/10/09 01:04:34;;;;;;;4.73;2.73;;;;;;;12.19;100.00;97176.56;5087495;28;20240;-60
2022/10/09 01:07:15;;;;;;;4.53;2.60;;;;;;;12.19;100.00;97174.75;5089775;28;20316;-61
2022/10/09 01:09:50;;;;;;;3.80;2.30;;;;;;;12.21;100.00;97174.63;5093160;28;20205;-60
2022/10/09 01:12:22;;;;;;;3.10;2.20;;;;;;;12.19;100.00;97171.28;5092976;28;20622;-61
2022/10/09 01:14:57;;;;;;;8.07;2.47;;;;;;;12.17;100.00;97165.28;5091176;28;20229;-60
2022/10/09 01:17:28;;;;;;;4.70;2.10;;;;;;;12.14;100.00;97161.09;5090502;28;20662;-60
2022/10/09 01:20:03;;;;;;;6.50;2.60;;;;;;;12.18;100.00;97156.34;5086082;28;20226;-61
2022/10/09 01:22:42;;;;;;;2.87;2.10;;;;;;;12.17;100.00;97152.88;5084804;28;20297;-58
2022/10/09 01:25:14;;;;;;;7.00;2.63;;;;;;;12.17;100.00;97146.72;5084332;28;20215;-60
2022/10/09 01:27:42;;;;;;;4.03;2.23;;;;;;;12.15;100.00;97148.69;5084400;28;20319;-60
2022/10/09 01:30:10;;;;;;;4.60;2.40;;;;;;;12.11;100.00;97144.63;5083837;28;20206;-60
2022/10/09 01:32:39;;;;;;;4.53;2.40;;;;;;;12.05;100.00;97145.19;5083934;28;20234;-58
2022/10/09 01:35:07;;;;;;;3.17;2.17;;;;;;;12.04;100.00;97141.72;5083704;28;20332;-60
2022/10/09 01:37:35;;;;;;;5.00;2.60;;;;;;;11.98;100.00;97143.09;5084182;28;20301;-60
2022/10/09 01:40:03;;;;;;;3.67;2.43;;;;;;;11.89;100.00;97128.03;5083689;28;20244;-61
2022/10/09 01:42:30;;;;;;;3.20;2.37;;;;;;;11.85;100.00;97131.94;5083395;28;20210;-60
2022/10/09 01:44:58;;;;;;;5.30;2.27;;;;;;;11.75;100.00;97139.06;5082847;28;20225;-60
2022/10/09 01:47:25;;;;;;;4.40;2.57;;;;;;;11.74;100.00;97134.72;5083004;28;20229;-59
2022/10/09 01:49:55;;;;;;;2.70;2.20;;;;;;;11.69;100.00;97123.66;5082708;28;20287;-61
2022/10/09 01:52:28;;;;;;;3.63;2.30;;;;;;;11.61;100.00;97128.81;5083549;28;20286;-61
2022/10/09 01:55:03;;;;;;;3.90;2.30;;;;;;;11.62;100.00;97130.47;5083140;28;20202;-60
2022/10/09 01:57:35;;;;;;;4.77;2.33;;;;;;;11.58;100.00;97126.47;5083969;28;21446;-60
2022/10/09 02:00:09;;;;;;;4.30;2.40;;;;;;;11.54;100.00;97114.47;5082950;28;20221;-60
2022/10/09 02:02:35;;;;;;;3.70;2.20;;;;;;;11.52;100.00;97120.84;5082847;28;20583;-60
2022/10/09 02:05:02;;;;;;;5.70;2.60;;;;;;;11.52;100.00;97115.53;5082718;28;20321;-60
2022/10/09 02:07:30;;;;;;;4.67;2.10;;;;;;;11.53;100.00;97120.72;5082252;28;20292;-60
2022/10/09 02:09:57;;;;;;;4.80;2.53;;;;;;;11.47;100.00;97115.97;5082959;28;20296;-61
2022/10/09 02:12:25;;;;;;;7.73;2.20;;;;;;;11.47;100.00;97110.69;5083348;28;20329;-60
2022/10/09 02:14:52;;;;;;;3.73;2.57;;;;;;;11.43;100.00;97114.56;5082947;28;20306;-61
2022/10/09 02:17:23;;;;;;;4.57;2.73;;;;;;;11.40;100.00;97114.84;5083048;28;20697;-60
2022/10/09 02:19:51;;;;;;;3.93;2.17;;;;;;;11.39;100.00;97115.81;5082623;28;20293;-61
2022/10/09 02:22:20;;;;;;;6.53;2.47;;;;;;;11.33;100.00;97109.25;5082988;28;20208;-58
2022/10/09 02:24:46;;;;;;;4.43;2.63;;;;;;;11.32;100.00;97106.75;5082239;28;20301;-61
2022/10/09 02:27:14;;;;;;;5.83;2.50;;;;;;;11.33;100.00;97108.44;5083059;28;20277;-60
2022/10/09 02:29:41;;;;;;;5.13;2.57;;;;;;;11.27;100.00;97103.66;5082736;28;20288;-59
2022/10/09 02:32:09;;;;;;;3.90;2.40;;;;;;;11.30;100.00;97101.56;5082955;28;20238;-60
2022/10/09 02:34:37;;;;;;;3.83;2.20;;;;;;;11.22;100.00;97109.38;5082463;28;20274;-60
2022/10/09 02:37:04;;;;;;;6.43;2.47;;;;;;;11.19;100.00;97106.16;5082819;28;20236;-60
2022/10/09 02:39:31;;;;;;;3.33;2.17;;;;;;;11.22;100.00;97096.13;5083055;28;20252;-61
2022/10/09 02:41:57;;;;;;;3.87;1.73;;;;;;;11.21;100.00;97104.19;5092515;28;20194;-61
2022/10/09 02:44:24;;;;;;;4.03;2.30;;;;;;;11.22;100.00;97095.28;5096914;28;20238;-60
2022/10/09 02:46:51;;;;;;;3.73;2.20;;;;;;;11.19;100.00;97095.56;5100782;28;20237;-60
2022/10/09 02:49:17;;;;;;;4.87;2.73;;;;;;;11.22;100.00;97093.50;5090284;28;20230;-61
2022/10/09 02:51:46;;;;;;;3.97;2.03;;;;;;;11.19;100.00;97087.63;5082805;28;20237;-61
2022/10/09 02:54:12;;;;;;;3.97;2.23;;;;;;;11.14;100.00;97092.47;5082171;28;20289;-60
2022/10/09 02:56:39;;;;;;;5.27;2.40;;;;;;;11.08;100.00;97091.22;5082734;28;20274;-58
2022/10/09 02:59:06;;;;;;;2.57;2.37;;;;;;;11.07;100.00;97080.75;5084181;28;20256;-60
2022/10/09 03:01:32;;;;;;;3.20;2.90;;;;;;;10.98;100.00;97080.59;5083431;28;20298;-60
2022/10/09 03:03:59;;;;;;;5.67;3.30;;;;;;;10.98;100.00;97082.44;5082689;28;20209;-59
2022/10/09 03:06:27;;;;;;;4.33;2.87;;;;;;;10.89;100.00;97081.41;5081533;28;20610;-59
2022/10/09 03:08:56;;;;;;;6.27;2.50;;;;;;;10.91;100.00;97082.09;5081988;28;20218;-60
2022/10/09 03:11:24;;;;;;;5.57;2.90;;;;;;;10.87;100.00;97075.44;5082127;28;20570;-61
2022/10/09 03:13:51;;;;;;;5.43;2.70;;;;;;;10.82;100.00;97077.63;5081948;28;20284;-59
2022/10/09 03:16:19;;;;;;;3.00;2.40;;;;;;;10.84;100.00;97080.97;5081854;28;20330;-59
2022/10/09 03:18:46;;;;;;;2.83;2.47;;;;;;;10.85;100.00;97076.50;5081213;28;20678;-60
2022/10/09 03:21:15;;;;;;;4.30;2.87;;;;;;;10.85;100.00;97079.16;5081960;28;20238;-58
2022/10/09 03:23:41;;;;;;;5.87;2.80;;;;;;;10.81;100.00;97075.94;5081523;28;20260;-60
2022/10/09 03:26:13;;;;;;;4.50;2.40;;;;;;;10.81;100.00;97080.41;5081976;28;20313;-61
2022/10/09 03:28:41;;;;;;;3.67;2.50;;;;;;;10.74;100.00;97080.09;5081517;28;20212;-60
2022/10/09 03:31:08;;;;;;;6.03;2.70;;;;;;;10.76;100.00;97078.16;5081557;28;20308;-61
2022/10/09 03:33:35;;;;;;;3.63;2.40;;;;;;;10.75;100.00;97079.13;5081748;28;20722;-59
2022/10/09 03:36:02;;;;;;;3.53;2.50;;;;;;;10.81;100.00;97081.22;5081613;28;20234;-60
2022/10/09 03:38:29;;;;;;;4.53;2.40;;;;;;;10.79;100.00;97083.19;5081426;28;20313;-61
2022/10/09 03:40:58;;;;;;;5.37;2.80;;;;;;;10.81;100.00;97075.94;5080552;28;20663;-60
2022/10/09 03:43:27;;;;;;;5.60;2.30;;;;;;;10.83;100.00;97074.03;5081494;28;20292;-60
2022/10/09 03:45:54;;;;;;;4.63;2.60;;;;;;;10.83;100.00;97073.19;5081227;28;20254;-60
2022/10/09 03:48:21;;;;;;;4.13;2.70;;;;;;;10.87;100.00;97083.38;5080960;28;20320;-60
2022/10/09 03:50:48;;;;;;;5.93;2.90;;;;;;;10.85;100.00;97073.88;5081416;28;20233;-60
2022/10/09 03:53:15;;;;;;;6.77;2.67;;;;;;;10.85;100.00;97080.00;5081689;28;20295;-60
2022/10/09 03:55:42;;;;;;;3.10;2.50;;;;;;;10.77;100.00;97071.88;5081204;28;20201;-59
2022/10/09 03:58:09;;;;;;;4.80;2.70;;;;;;;10.82;100.00;97074.13;5081300;28;20303;-60
2022/10/09 04:00:37;;;;;;;4.13;2.40;;;;;;;10.75;100.00;97076.50;5080694;28;20298;-60
2022/10/09 04:03:04;;;;;;;7.00;2.53;;;;;;;10.67;100.00;97073.66;5080973;28;20666;-61
2022/10/09 04:05:33;;;;;;;3.90;2.43;;;;;;;10.66;100.00;97065.88;5081129;28;20341;-60
2022/10/09 04:08:00;;;;;;;2.57;2.20;;;;;;;10.68;100.00;97066.56;5081418;28;20205;-60
2022/10/09 04:10:26;;;;;;;4.87;2.40;;;;;;;10.72;100.00;97068.81;5081294;28;20206;-59
2022/10/09 04:12:53;;;;;;;3.63;3.07;;;;;;;10.64;100.00;97079.22;5080582;28;20216;-61
2022/10/09 04:15:20;;;;;;;3.80;2.83;;;;;;;10.62;100.00;97078.53;5080572;28;20603;-61
2022/10/09 04:17:48;;;;;;;3.37;2.53;;;;;;;10.60;100.00;97082.25;5081034;28;20263;-60
2022/10/09 04:20:14;;;;;;;3.23;2.53;;;;;;;10.59;100.00;97078.81;5080925;28;20365;-60
2022/10/09 04:22:41;;;;;;;4.87;2.60;;;;;;;10.56;100.00;97071.09;5081237;28;20299;-61
2022/10/09 04:25:08;;;;;;;2.93;2.40;;;;;;;10.47;100.00;97077.19;5080776;28;20233;-59
2022/10/09 04:27:35;;;;;;;4.97;2.60;;;;;;;10.44;100.00;97077.47;5081390;28;20222;-60
2022/10/09 04:30:02;;;;;;;7.20;2.53;;;;;;;10.43;100.00;97073.97;5081138;28;20289;-61
2022/10/09 04:32:28;;;;;;;5.70;2.83;;;;;;;10.29;100.00;97063.75;5081699;28;21066;-59
2022/10/09 04:34:56;;;;;;;6.50;2.97;;;;;;;10.23;100.00;97064.28;5081250;28;20213;-60
2022/10/09 04:37:24;;;;;;;3.20;2.37;;;;;;;10.17;100.00;97064.78;5081311;28;20293;-60
2022/10/09 04:39:51;;;;;;;5.93;2.53;;;;;;;10.17;100.00;97069.22;5081285;28;20253;-60
2022/10/09 04:42:17;;;;;;;5.77;2.60;;;;;;;10.11;100.00;97065.28;5081522;28;20289;-58
2022/10/09 04:44:44;;;;;;;5.23;2.90;;;;;;;10.04;100.00;97064.13;5079941;28;20614;-61
2022/10/09 04:47:11;;;;;;;4.73;2.67;;;;;;;10.00;100.00;97063.53;5080619;28;20242;-60
2022/10/09 04:49:37;;;;;;;4.53;2.73;;;;;;;10.02;100.00;97065.22;5083664;28;20713;-60
2022/10/09 04:52:05;;;;;;;2.90;2.60;;;;;;;9.94;100.00;97058.78;5092388;28;20327;-60
2022/10/09 04:54:32;;;;;;;3.97;2.50;;;;;;;9.95;100.00;97056.97;5090649;28;20201;-59
2022/10/09 04:56:58;;;;;;;4.10;2.70;;;;;;;9.95;100.00;97060.44;5082756;28;20604;-61
2022/10/09 04:59:26;;;;;;;5.47;2.90;;;;;;;9.89;100.00;97060.13;5091217;28;20249;-60
2022/10/09 05:01:53;;;;;;;5.57;2.70;;;;;;;9.90;100.00;97067.94;5093962;28;20234;-59
2022/10/09 05:04:19;;;;;;;3.37;2.60;;;;;;;9.87;100.00;97060.25;5085796;28;20257;-60
2022/10/09 05:06:46;;;;;;;4.87;2.97;;;;;;;9.83;100.00;97072.03;5083934;28;20281;-59
2022/10/09 05:09:14;;;;;;;5.27;3.00;;;;;;;9.89;100.00;97068.88;5094421;28;20222;-60
2022/10/09 05:11:41;;;;;;;3.43;2.87;;;;;;;9.87;100.00;97073.47;5096763;28;20243;-61
2022/10/09 05:14:07;;;;;;;3.40;2.60;;;;;;;9.92;100.00;97071.25;5093841;28;20238;-61
2022/10/09 05:16:34;;;;;;;3.50;2.63;;;;;;;9.94;100.00;97058.78;5087181;28;20226;-60
2022/10/09 05:19:00;;;;;;;4.70;3.00;;;;;;;9.90;100.00;97062.66;5080403;28;20692;-59
2022/10/09 05:21:28;;;;;;;3.37;2.97;;;;;;;9.83;100.00;97060.63;5080029;28;20296;-60
2022/10/09 05:23:54;;;;;;;5.80;3.50;;;;;;;9.86;100.00;97063.88;5081537;28;20278;-60
2022/10/09 05:26:24;;;;;;;5.93;2.60;;;;;;;9.81;100.00;97063.41;5083505;28;20253;-60
2022/10/09 05:28:51;;;;;;;3.97;2.90;;;;;;;9.78;100.00;97065.47;5084401;28;20594;-59
2022/10/09 05:31:21;;;;;;;3.80;2.60;;;;;;;9.73;100.00;97063.22;5083765;28;20208;-61
2022/10/09 05:33:48;;;;;;;4.43;2.93;;;;;;;9.68;100.00;97062.75;5083516;28;20253;-60
2022/10/09 05:36:17;;;;;;;4.03;3.10;;;;;;;9.71;100.00;97073.06;5083881;28;20244;-59
2022/10/09 05:38:44;;;;;;;3.90;2.60;;;;;;;9.64;100.00;97076.31;5083400;28;20651;-61
2022/10/09 05:41:12;;;;;;;4.77;2.73;;;;;;;9.69;100.00;97075.00;5084106;28;20295;-60
2022/10/09 05:43:42;;;;;;;4.07;3.27;;;;;;;9.64;100.00;97079.81;5084106;28;20284;-60
2022/10/09 05:46:12;;;;;;;4.00;2.80;;;;;;;9.68;100.00;97075.94;5084960;28;20279;-61
2022/10/09 05:48:40;;;;;;;6.87;3.30;;;;;;;9.65;100.00;97076.22;5088465;28;20234;-60
2022/10/09 05:51:11;;;;;;;3.43;3.13;;;;;;;9.75;100.00;97073.63;5086296;28;20308;-61
2022/10/09 05:53:38;;;;;;;4.90;3.13;;;;;;;9.79;100.00;97080.34;5087135;28;20618;-60
2022/10/09 05:56:16;;;;;;;7.67;3.73;;;;;;;9.83;100.00;97069.41;5087287;28;20211;-61
2022/10/09 05:58:44;;;;;;;4.13;3.30;;;;;;;9.86;100.00;97079.72;5085903;28;20202;-61
2022/10/09 06:01:11;;;;;;;5.80;3.90;;;;;;;9.92;100.00;97081.84;5086081;28;20286;-60
2022/10/09 06:03:38;;;;;;;6.07;3.23;;;;;;;9.97;100.00;97074.38;5086639;28;20281;-59
2022/10/09 06:06:06;;;;;;;5.37;3.67;;;;;;;9.99;100.00;97083.00;5086105;28;20233;-61
2022/10/09 06:08:33;;;;;;;4.33;3.17;;;;;;;10.05;100.00;97086.09;5086295;28;20293;-60
2022/10/09 06:11:09;;;;;;;5.13;3.50;;;;;;;10.10;100.00;97075.97;5083709;28;20213;-61
2022/10/09 06:13:35;;;;;;;4.77;3.40;;;;;;;10.15;100.00;97081.75;5083729;28;20289;-61
2022/10/09 06:16:03;;;;;;;5.73;3.40;;;;;;;10.23;100.00;97080.16;5083190;28;20285;-60
2022/10/09 06:18:30;;;;;;;5.30;3.50;;;;;;;10.24;100.00;97083.59;5083073;28;20289;-59
2022/10/09 06:20:58;;;;;;;6.83;3.90;;;;;;;10.27;100.00;97086.81;5082582;28;20297;-60
2022/10/09 06:23:25;;;;;;;5.37;4.00;;;;;;;10.33;100.00;97086.31;5083175;28;20300;-58
2022/10/09 06:25:53;;;;;;;6.07;4.03;;;;;;;10.33;100.00;97088.97;5082981;28;20293;-61
2022/10/09 06:28:20;;;;;;;5.37;3.47;;;;;;;10.38;100.00;97096.50;5082709;28;20247;-59
2022/10/09 06:30:47;;;;;;;5.93;4.17;;;;;;;10.42;100.00;97095.25;5081981;28;20284;-60
2022/10/09 06:33:15;;;;;;;5.93;4.00;;;;;;;10.48;100.00;97094.75;5082661;28;20297;-62
2022/10/09 06:35:41;;;;;;;4.13;3.70;;;;;;;10.46;100.00;97097.50;5082372;28;20305;-61
2022/10/09 06:38:08;;;;;;;7.80;3.60;;;;;;;10.49;100.00;97097.25;5082479;28;20590;-61
2022/10/09 06:40:35;;;;;;;5.37;3.60;;;;;;;10.51;100.00;97099.78;5081932;28;20209;-60
2022/10/09 06:43:03;;;;;;;7.77;3.87;;;;;;;10.58;100.00;97103.56;5082290;28;20209;-58
2022/10/09 06:45:30;;;;;;;4.23;3.40;;;;;;;10.56;100.00;97108.13;5081674;28;20718;-60
2022/10/09 06:47:57;;;;;;;5.47;3.97;;;;;;;10.54;100.00;97106.59;5081885;28;20261;-58
2022/10/09 06:50:25;;;;;;;5.33;3.60;;;;;;;10.62;100.00;97102.34;5082384;28;20221;-60
2022/10/09 06:52:51;;;;;;;5.73;3.97;;;;;;;10.67;100.00;97107.22;5082805;28;20293;-60
2022/10/09 06:55:18;;;;;;;7.80;4.93;;;;;;;10.66;100.00;97102.91;5082172;28;20226;-60
2022/10/09 06:57:45;;;;;;;5.57;3.40;;;;;;;10.67;100.00;97100.13;5082477;28;20191;-60
2022/10/09 07:00:13;;;;;;;3.67;3.37;;;;;;;10.69;100.00;97106.13;5082102;28;20293;-61
2022/10/09 07:02:41;;;;;;;5.27;3.83;;;;;;;10.71;100.00;97104.19;5081842;28;20297;-61
2022/10/09 07:05:08;;;;;;;5.80;3.87;;;;;;;10.73;100.00;97107.53;5082027;28;20209;-60
2022/10/09 07:07:39;;;;;;;4.50;3.70;;;;;;;10.71;100.00;97111.25;5082154;28;20257;-61
2022/10/09 07:10:07;;;;;;;5.87;4.30;;;;;;;10.69;100.00;97108.78;5081388;28;20262;-60
2022/10/09 07:12:34;;;;;;;5.53;3.73;;;;;;;10.75;100.00;97108.22;5081634;28;20228;-61
2022/10/09 07:15:01;;;;;;;4.73;3.83;;;;;;;11.01;100.00;97107.78;5081547;28;20650;-60
2022/10/09 07:17:27;;;;;;;5.20;3.80;;;;;;;10.97;100.00;97108.06;5082409;28;20297;-61
2022/10/09 07:19:54;;;;;;;6.43;3.90;;;;;;;11.11;100.00;97111.28;5081579;28;20296;-60
2022/10/09 07:22:20;;;;;;;6.90;4.30;;;;;;;11.08;100.00;97104.47;5082319;28;20895;-60
2022/10/09 07:24:49;;;;;;;4.93;3.50;;;;;;;11.14;100.00;97113.66;5081512;28;20289;-60
2022/10/09 07:27:16;;;;;;;7.03;4.07;;;;;;;11.23;100.00;97107.56;5081786;28;20230;-60
2022/10/09 07:29:42;;;;;;;3.97;3.57;;;;;;;11.39;100.00;97107.88;5081714;28;20234;-66
2022/10/09 07:32:09;;;;;;;4.50;3.80;;;;;;;11.41;100.00;97111.22;5084563;28;20261;-61
2022/10/09 07:34:35;;;;;;;8.13;3.93;;;;;;;11.43;100.00;97110.13;5100154;28;20202;-61
2022/10/09 07:37:02;;;;;;;5.83;3.87;;;;;;;11.41;100.00;97105.91;5102875;28;20194;-60
2022/10/09 07:39:29;;;;;;;4.67;3.67;;;;;;;11.50;100.00;97110.41;5093731;28;20300;-60
2022/10/09 07:41:57;;;;;;;6.07;3.73;;;;;;;11.49;100.00;97106.06;5082822;28;20707;-59
2022/10/09 07:44:23;;;;;;;5.97;3.90;;;;;;;11.58;100.00;97102.63;5082203;28;20236;-60
2022/10/09 07:46:51;;;;;;;5.90;3.73;;;;;;;11.66;100.00;97108.03;5080624;28;20310;-60
2022/10/09 07:49:18;;;;;;;4.17;3.80;;;;;;;11.76;100.00;97103.59;5081195;28;20217;-61
2022/10/09 07:51:45;;;;;;;5.03;3.67;;;;;;;11.78;100.00;97103.47;5081541;28;20289;-61
2022/10/09 07:54:11;;;;;;;8.57;4.00;;;;;;;11.78;100.00;97109.63;5081768;28;20542;-60
2022/10/09 07:56:38;;;;;;;4.83;3.83;;;;;;;11.77;100.00;97105.28;5081020;28;20226;-62
2022/10/09 07:59:10;;;;;;;5.87;3.50;;;;;;;11.75;100.00;97115.22;5081234;28;20393;-61
2022/10/09 08:01:37;;;;;;;6.53;4.13;;;;;;;11.81;100.00;97114.63;5081312;28;20206;-61
2022/10/09 08:04:04;;;;;;;8.50;3.93;;;;;;;11.86;100.00;97112.41;5080880;28;20306;-62
2022/10/09 08:06:31;;;;;;;4.03;3.63;;;;;;;11.86;100.00;97109.78;5080693;28;20669;-60
2022/10/09 08:08:59;;;;;;;5.57;4.00;;;;;;;11.84;100.00;97106.41;5081252;28;20225;-60
2022/10/09 08:11:27;;;;;;;4.17;3.77;;;;;;;11.81;100.00;97106.69;5081312;28;20280;-60
2022/10/09 08:13:54;;;;;;;6.53;4.10;;;;;;;11.79;100.00;97108.66;5081649;28;20214;-59
2022/10/09 08:16:23;;;;;;;4.90;3.80;;;;;;;11.82;100.00;97104.88;5081180;28;20296;-60
2022/10/09 08:18:53;;;;;;;7.83;4.37;;;;;;;11.77;100.00;97105.28;5080907;28;20209;-58
2022/10/09 08:21:20;;;;;;;7.17;4.47;;;;;;;11.84;100.00;97106.41;5080608;28;20225;-59
2022/10/09 08:23:46;;;;;;;6.63;4.10;;;;;;;11.94;100.00;97107.25;5081117;28;20297;-58
2022/10/09 08:26:14;;;;;;;5.93;4.00;;;;;;;11.96;100.00;97096.50;5080920;28;20217;-58
2022/10/09 08:28:40;;;;;;;5.57;4.00;;;;;;;11.97;100.00;97098.19;5083865;28;20279;-60
2022/10/09 08:31:11;;;;;;;7.10;4.07;;;;;;;12.01;100.00;97093.44;5085493;28;20288;-58
2022/10/09 08:33:40;;;;;;;6.67;4.20;;;;;;;12.04;100.00;97098.47;5081234;28;20541;-59
2022/10/09 08:36:09;;;;;;;4.90;3.80;;;;;;;12.03;100.00;97102.09;5083495;28;20403;-60
2022/10/09 08:38:36;;;;;;;5.10;4.57;;;;;;;12.02;100.00;97101.25;5082597;28;20297;-59
2022/10/09 08:41:08;;;;;;;6.07;4.27;;;;;;;12.02;100.00;97089.78;5082502;28;20333;-60
2022/10/09 08:43:38;;;;;;;6.60;4.73;;;;;;;12.03;100.00;97091.47;5079507;28;20237;-59
2022/10/09 08:46:06;;;;;;;6.77;4.60;;;;;;;12.11;100.00;97099.56;5080133;28;20217;-58
2022/10/09 08:48:35;;;;;;;7.57;4.27;;;;;;;12.18;100.00;97100.69;5079977;28;20329;-60
2022/10/09 08:51:08;;;;;;;6.67;4.20;;;;;;;12.18;100.00;97103.34;5080856;28;20222;-59
2022/10/09 08:53:38;;;;;;;6.17;4.60;;;;;;;12.21;100.00;97101.22;5080734;28;20205;-58
2022/10/09 08:56:06;;;;;;;6.77;4.50;;;;;;;12.22;100.00;97099.41;5081318;28;21400;-59
2022/10/09 08:58:34;;;;;;;6.53;4.93;;;;;;;12.17;100.00;97099.00;5082555;28;20333;-59
2022/10/09 09:01:05;;;;;;;6.33;4.50;;;;;;;12.25;100.00;97101.78;5084412;28;20240;-65
2022/10/09 09:03:46;;;;;;;6.13;4.53;;;;;;;12.22;100.00;97096.78;5085368;28;20225;-61
2022/10/09 09:06:21;;;;;;;5.70;4.27;;;;;;;12.21;100.00;97093.28;5087429;28;20233;-60
2022/10/09 09:08:52;;;;;;;4.73;4.10;;;;;;;12.19;100.00;97099.69;5089149;28;20296;-64
2022/10/09 09:11:24;;;;;;;5.50;4.40;;;;;;;12.21;100.00;97093.28;5089316;28;20232;-67
2022/10/09 09:13:58;;;;;;;6.87;4.00;;;;;;;12.25;100.00;97092.03;5086253;28;20289;-61
2022/10/09 09:16:32;;;;;;;8.53;4.97;;;;;;;12.29;100.00;97092.56;5085618;28;20302;-61
2022/10/09 09:19:09;;;;;;;6.83;4.53;;;;;;;12.34;100.00;97080.53;5085151;28;20276;-60
2022/10/09 09:21:41;;;;;;;5.83;4.60;;;;;;;12.40;100.00;97079.13;5084720;28;20711;-60
2022/10/09 09:24:12;;;;;;;7.43;4.70;;;;;;;12.37;100.00;97079.41;5083925;28;20280;-61
2022/10/09 09:26:40;;;;;;;5.97;4.60;;;;;;;12.39;100.00;97082.78;5084333;28;20245;-61
2022/10/09 09:29:07;;;;;;;6.23;4.13;;;;;;;12.42;100.00;97074.53;5083406;28;20232;-61
2022/10/09 09:31:36;;;;;;;5.03;4.27;;;;;;;12.51;100.00;97071.00;5083865;28;20336;-58
2022/10/09 09:34:06;;;;;;;6.03;4.57;;;;;;;12.48;98.57;97073.94;5083348;28;20282;-61
2022/10/09 09:36:36;;;;;;;6.80;5.23;;;;;;;12.52;98.66;97077.13;5084187;28;20636;-62
2022/10/09 09:39:03;;;;;;;7.27;4.60;;;;;;;12.54;98.91;97075.19;5066561;28;20294;-60
2022/10/09 09:41:30;;;;;;;6.13;4.63;;;;;;;12.48;98.34;97077.44;5083808;28;20313;-60
2022/10/09 09:43:58;;;;;;;7.13;4.43;;;;;;;12.57;99.51;97075.75;5083685;28;20252;-60
2022/10/09 09:46:27;;;;;;;8.63;4.73;;;;;;;12.61;97.41;97079.75;5083636;28;20277;-60
2022/10/09 09:48:54;;;;;;;6.50;4.30;;;;;;;12.65;99.17;97080.28;5083556;28;20360;-58
2022/10/09 09:51:23;;;;;;;5.07;4.57;;;;;;;12.71;99.98;97072.63;5082894;28;20224;-60
2022/10/09 09:53:51;;;;;;;5.60;4.83;;;;;;;12.78;99.90;97073.72;5083597;28;20194;-60
2022/10/09 09:56:19;;;;;;;6.67;4.30;;;;;;;12.85;100.00;97074.78;5083564;28;20232;-61
2022/10/09 09:58:48;;;;;;;6.40;4.37;;;;;;;12.93;99.52;97072.22;5083037;28;20198;-62
2022/10/09 10:01:23;;;;;;;4.70;4.30;;;;;;;12.97;98.97;97070.94;5083350;28;20289;-60
2022/10/09 10:03:52;;;;;;;7.70;4.87;;;;;;;12.99;97.98;97068.16;5083604;28;20292;-60
2022/10/09 10:06:23;;;;;;;6.80;4.97;;;;;;;12.96;97.25;97071.13;5101358;28;20202;-62
2022/10/09 10:08:58;;;;;;;6.80;4.60;;;;;;;12.97;97.58;97062.13;5106621;28;20237;-60
2022/10/09 10:11:30;;;;;;;9.37;5.13;;;;;;;13.09;97.96;97057.47;5104998;28;20197;-61
2022/10/09 10:13:57;;;;;;;7.83;4.60;;;;;;;13.09;98.00;97070.75;5084361;28;20281;-58
2022/10/09 10:16:25;;;;;;;9.30;4.90;;;;;;;13.01;97.79;97062.69;5083598;28;20293;-60
2022/10/09 10:18:52;;;;;;;6.97;4.60;;;;;;;12.98;98.68;97069.97;5083098;28;20298;-60
2022/10/09 10:21:20;;;;;;;7.27;5.10;;;;;;;13.02;98.46;97067.03;5083623;28;20208;-61
2022/10/09 10:23:51;;;;;;;9.13;4.33;;;;;;;13.07;98.47;97056.81;5083416;28;20214;-59
2022/10/09 10:26:33;;;;;;;7.63;5.53;;;;;;;13.09;97.98;97053.03;5082841;28;20222;-60
2022/10/09 10:29:03;;;;;;;6.67;4.97;;;;;;;13.12;98.66;97054.56;5082566;28;20237;-61
2022/10/09 10:31:38;;;;;;;9.73;5.70;;;;;;;13.09;98.72;97054.81;5082721;28;20234;-59
2022/10/09 10:34:09;;;;;;;8.17;4.70;;;;;;;13.12;99.70;97049.25;5082366;28;20280;-60
2022/10/09 10:36:36;;;;;;;4.30;3.90;;;;;;;13.19;99.56;97051.16;5082793;28;20197;-61
2022/10/09 10:39:10;;;;;;;4.87;4.30;;;;;;;13.23;98.91;97051.69;5082564;28;20324;-59
2022/10/09 10:41:44;;;;;;;5.77;4.90;;;;;;;13.24;99.82;97056.03;5082614;28;20297;-60
2022/10/09 10:44:20;;;;;;;18.03;12.93;;;;;;;13.28;100.00;97047.63;5081771;28;20626;-59
2022/10/09 10:46:51;;;;;;;5.90;5.07;;;;;;;13.26;98.86;97048.75;5082205;28;20257;-59
2022/10/09 10:49:20;;;;;;;8.27;5.10;;;;;;;13.24;97.48;97048.91;5082351;28;20230;-59
2022/10/09 10:52:04;;;;;;;10.70;5.60;;;;;;;13.16;98.24;97050.63;5082337;28;20198;-61
2022/10/09 10:54:37;;;;;;;10.53;5.40;;;;;;;13.21;98.51;97043.06;5082515;28;20204;-60
2022/10/09 10:57:09;;;;;;;6.70;4.77;;;;;;;13.25;99.65;97039.94;5082508;28;20217;-60
2022/10/09 10:59:39;;;;;;;6.97;5.10;;;;;;;13.29;99.75;97037.81;5082215;28;20253;-61
2022/10/09 11:02:31;;;;;;;7.70;5.03;;;;;;;13.30;98.57;97042.13;5082866;28;20225;-60
2022/10/09 11:05:04;;;;;;;5.70;5.10;;;;;;;13.36;99.53;97038.88;5082314;28;20206;-61
2022/10/09 11:07:39;;;;;;;6.43;4.80;;;;;;;13.37;99.42;97032.59;5082106;28;20229;-60
2022/10/09 11:10:14;;;;;;;6.40;5.07;;;;;;;13.35;97.56;97034.56;5082090;28;20691;-61
2022/10/09 11:12:46;;;;;;;6.97;5.07;;;;;;;13.40;97.82;97034.94;5081816;28;20291;-59
2022/10/09 11:15:18;;;;;;;7.50;5.40;;;;;;;13.41;97.73;97033.97;5081564;28;20208;-61
2022/10/09 11:17:50;;;;;;;8.70;5.00;;;;;;;13.47;97.59;97036.00;5081744;28;20206;-59
2022/10/09 11:20:37;;;;;;;6.20;5.60;;;;;;;13.48;97.00;97028.88;5081893;28;20666;-63
2022/10/09 11:23:09;;;;;;;5.23;4.70;;;;;;;13.49;97.28;97031.41;5082272;28;20238;-60
2022/10/09 11:25:40;;;;;;;5.47;4.63;;;;;;;13.53;97.90;97032.75;5082080;28;20274;-60
2022/10/09 11:28:11;;;;;;;6.57;5.10;;;;;;;13.53;96.35;97026.63;5082451;28;20297;-61
2022/10/09 11:30:43;;;;;;;10.47;5.57;;;;;;;13.53;97.19;97026.63;5081790;28;20284;-60
2022/10/09 11:33:22;;;;;;;7.37;5.10;;;;;;;13.54;97.95;97023.78;5083013;28;20218;-60